createdAt,value
2019-05-16T00:02:19.391Z,50.90
2019-05-16T00:04:50.326Z,50.90
2019-05-16T00:07:21.126Z,50.90
2019-05-16T00:09:52.277Z,50.90
2019-05-16T00:12:23.112Z,51.00
2019-05-16T00:14:54.051Z,51.10
2019-05-16T00:17:24.906Z,51.00
2019-05-16T00:19:55.838Z,51.10
2019-05-16T00:22:28.689Z,51.10
2019-05-16T00:24:59.251Z,51.20
2019-05-16T00:27:30.151Z,51.20
2019-05-16T00:30:01.434Z,51.80
2019-05-16T00:32:33.621Z,51.30
2019-05-16T00:35:04.931Z,51.20
2019-05-16T00:37:35.868Z,51.30
2019-05-16T00:40:08.345Z,51.30
2019-05-16T00:42:39.537Z,51.60
2019-05-16T00:45:13.266Z,51.40
2019-05-16T00:47:43.122Z,51.40
2019-05-16T00:50:14.050Z,51.60
2019-05-16T00:52:44.794Z,51.40
2019-05-16T00:55:17.787Z,51.50
2019-05-16T00:57:49.697Z,51.70
2019-05-16T01:00:34.646Z,51.70
2019-05-16T01:03:05.512Z,51.80
2019-05-16T01:05:38.767Z,52.00
2019-05-16T01:08:09.025Z,52.00
2019-05-16T01:10:41.208Z,52.00
2019-05-16T01:13:12.077Z,52.10
2019-05-16T01:15:42.914Z,52.20
2019-05-16T01:18:13.862Z,52.10
2019-05-16T01:20:44.857Z,52.20
2019-05-16T01:23:17.992Z,52.20
2019-05-16T01:25:48.597Z,52.30
2019-05-16T01:28:19.989Z,52.40
2019-05-16T01:30:50.914Z,52.40
2019-05-16T01:33:21.801Z,52.40
2019-05-16T01:35:52.616Z,52.40
2019-05-16T01:38:23.481Z,52.60
2019-05-16T01:40:54.323Z,52.60
2019-05-16T01:43:25.667Z,52.60
2019-05-16T01:45:57.814Z,52.60
2019-05-16T01:48:29.841Z,52.70
2019-05-16T01:51:01.146Z,52.60
2019-05-16T01:53:32.100Z,52.80
2019-05-16T01:56:02.890Z,52.80
2019-05-16T01:58:33.745Z,52.50
2019-05-16T02:01:12.379Z,52.80
2019-05-16T02:03:38.724Z,53.30
2019-05-16T02:06:09.843Z,53.00
2019-05-16T02:08:40.709Z,52.90
2019-05-16T02:11:11.544Z,53.00
2019-05-16T02:13:42.433Z,53.10
2019-05-16T02:16:13.237Z,53.00
2019-05-16T02:18:44.172Z,53.10
2019-05-16T02:21:15.402Z,53.30
2019-05-16T02:23:48.569Z,53.30
2019-05-16T02:26:19.369Z,53.40
2019-05-16T02:28:51.104Z,53.50
2019-05-16T02:31:22.962Z,53.30
2019-05-16T02:33:54.022Z,53.40
2019-05-16T02:36:24.870Z,53.40
2019-05-16T02:38:55.971Z,53.40
2019-05-16T02:41:26.888Z,53.70
2019-05-16T02:44:00.961Z,53.70
2019-05-16T02:46:30.901Z,53.70
2019-05-16T02:49:01.942Z,53.80
2019-05-16T02:51:32.837Z,53.90
2019-05-16T02:54:03.766Z,53.90
2019-05-16T02:56:34.660Z,54.00
2019-05-16T02:59:05.587Z,53.90
2019-05-16T03:01:36.460Z,54.00
2019-05-16T03:04:10.769Z,53.90
2019-05-16T03:06:41.120Z,53.80
2019-05-16T03:09:12.541Z,53.80
2019-05-16T03:11:44.545Z,54.00
2019-05-16T03:14:16.263Z,54.20
2019-05-16T03:16:50.580Z,54.20
2019-05-16T03:19:23.588Z,54.20
2019-05-16T03:21:56.838Z,54.30
2019-05-16T03:24:30.792Z,54.30
2019-05-16T03:27:01.665Z,54.40
2019-05-16T03:29:32.675Z,54.40
2019-05-16T03:32:03.728Z,54.30
2019-05-16T03:34:35.089Z,54.30
2019-05-16T03:37:06.574Z,54.40
2019-05-16T03:39:40.527Z,54.30
2019-05-16T03:42:12.612Z,54.50
2019-05-16T03:44:42.539Z,54.50
2019-05-16T03:47:13.434Z,54.50
2019-05-16T03:49:44.405Z,54.70
2019-05-16T03:52:15.322Z,54.80
2019-05-16T03:54:46.203Z,54.70
2019-05-16T03:57:20.892Z,54.70
2019-05-16T03:59:51.827Z,54.70
2019-05-16T04:02:22.024Z,54.60
2019-05-16T04:04:52.944Z,54.70
2019-05-16T04:07:23.800Z,54.60
2019-05-16T04:09:54.604Z,54.60
2019-05-16T04:12:25.824Z,54.60
2019-05-16T04:14:56.669Z,54.70
2019-05-16T04:17:27.543Z,54.70
2019-05-16T04:20:01.543Z,54.70
2019-05-16T04:22:32.010Z,54.60
2019-05-16T04:25:03.261Z,54.60
2019-05-16T04:27:34.161Z,54.60
2019-05-16T04:30:05.380Z,54.60
2019-05-16T04:32:36.236Z,54.50
2019-05-16T04:35:07.143Z,55.20
2019-05-16T04:37:41.726Z,54.60
2019-05-16T04:40:12.204Z,54.60
2019-05-16T04:42:43.352Z,54.70
2019-05-16T04:45:14.447Z,54.70
2019-05-16T04:47:45.279Z,54.70
2019-05-16T04:50:16.325Z,54.70
2019-05-16T04:52:51.433Z,54.60
2019-05-16T04:55:21.198Z,54.60
2019-05-16T04:57:52.543Z,54.50
2019-05-16T05:00:24.431Z,54.50
2019-05-16T05:02:55.923Z,54.50
2019-05-16T05:05:26.796Z,54.40
2019-05-16T05:07:57.799Z,54.30
2019-05-16T05:10:31.233Z,54.30
2019-05-16T05:13:01.726Z,54.30
2019-05-16T05:15:32.905Z,54.20
2019-05-16T05:18:03.762Z,54.10
2019-05-16T05:20:34.603Z,54.00
2019-05-16T05:23:05.458Z,53.90
2019-05-16T05:25:36.643Z,54.30
2019-05-16T05:28:09.876Z,53.40
2019-05-16T05:30:41.098Z,53.20
2019-05-16T05:33:11.958Z,53.30
2019-05-16T05:35:42.951Z,53.50
2019-05-16T05:38:13.915Z,53.60
2019-05-16T05:40:44.847Z,53.40
2019-05-16T05:43:15.775Z,53.30
2019-05-16T05:45:46.593Z,53.10
2019-05-16T05:48:17.379Z,53.10
2019-05-16T05:50:50.686Z,53.10
2019-05-16T05:53:21.246Z,53.00
2019-05-16T05:55:53.705Z,52.80
2019-05-16T05:58:24.595Z,52.60
2019-05-16T06:00:55.509Z,52.30
2019-05-16T06:03:26.478Z,52.00
2019-05-16T06:05:57.426Z,51.80
2019-05-16T06:08:30.577Z,51.80
2019-05-16T06:11:01.121Z,51.60
2019-05-16T06:13:32.373Z,51.70
2019-05-16T06:16:03.214Z,51.60
2019-05-16T06:18:34.214Z,51.50
2019-05-16T06:21:05.235Z,51.60
2019-05-16T06:23:36.136Z,51.60
2019-05-16T06:26:07.051Z,51.70
2019-05-16T06:28:38.043Z,51.80
2019-05-16T06:31:14.011Z,51.60
2019-05-16T06:33:41.615Z,51.50
2019-05-16T06:36:12.843Z,51.10
2019-05-16T06:38:43.742Z,50.50
2019-05-16T06:41:15.641Z,49.80
2019-05-16T06:43:46.878Z,49.40
2019-05-16T06:46:19.971Z,49.10
2019-05-16T06:48:50.793Z,48.70
2019-05-16T06:51:21.739Z,47.90
2019-05-16T06:53:52.595Z,46.20
2019-05-16T06:56:23.539Z,45.00
2019-05-16T06:58:54.436Z,44.20
2019-05-16T07:01:25.409Z,43.10
2019-05-16T07:03:56.232Z,42.60
2019-05-16T07:06:48.522Z,42.40
2019-05-16T07:09:01.097Z,41.70
2019-05-16T07:11:33.750Z,41.50
2019-05-16T07:14:04.820Z,42.10
2019-05-16T07:16:35.891Z,42.50
2019-05-16T07:19:06.835Z,43.20
2019-05-16T07:21:39.721Z,43.50
2019-05-16T07:24:10.876Z,44.20
2019-05-16T07:26:42.190Z,44.60
2019-05-16T07:29:13.101Z,44.20
2019-05-16T07:31:43.944Z,43.90
2019-05-16T07:34:14.865Z,41.20
2019-05-16T07:36:45.879Z,40.20
2019-05-16T07:39:16.829Z,40.60
2019-05-16T07:41:47.807Z,39.70
2019-05-16T07:44:20.690Z,39.10
2019-05-16T07:46:51.760Z,39.10
2019-05-16T07:49:22.763Z,38.40
2019-05-16T07:51:54.910Z,37.50
2019-05-16T07:54:25.709Z,38.20
2019-05-16T07:57:02.270Z,38.60
2019-05-16T07:59:29.945Z,39.20
2019-05-16T08:02:01.179Z,39.30
2019-05-16T08:04:32.398Z,39.40
2019-05-16T08:07:05.733Z,39.70
2019-05-16T08:09:35.927Z,40.10
2019-05-16T08:12:07.020Z,41.00
2019-05-16T08:14:40.779Z,41.60
2019-05-16T08:17:10.956Z,42.30
2019-05-16T08:19:41.729Z,42.60
2019-05-16T08:22:12.718Z,42.70
2019-05-16T08:24:44.727Z,42.70
2019-05-16T08:27:15.620Z,42.60
2019-05-16T08:29:47.015Z,42.30
2019-05-16T08:32:22.653Z,41.90
2019-05-16T08:34:51.459Z,42.30
2019-05-16T08:37:37.514Z,42.20
2019-05-16T08:39:55.179Z,42.10
2019-05-16T08:42:26.051Z,42.20
2019-05-16T08:44:57.039Z,41.90
2019-05-16T08:47:31.813Z,41.90
2019-05-16T08:50:00.838Z,42.10
2019-05-16T08:52:31.943Z,42.10
2019-05-16T08:55:03.682Z,42.00
2019-05-16T08:57:34.714Z,42.30
2019-05-16T09:00:06.424Z,42.30
2019-05-16T09:02:37.399Z,42.30
2019-05-16T09:05:13.021Z,42.40
2019-05-16T09:07:41.489Z,42.60
2019-05-16T09:10:45.744Z,42.70
2019-05-16T09:12:46.912Z,42.80
2019-05-16T09:15:18.062Z,42.70
2019-05-16T09:17:49.039Z,42.60
2019-05-16T09:20:20.475Z,42.30
2019-05-16T09:22:51.618Z,42.50
2019-05-16T09:25:22.621Z,42.50
2019-05-16T09:27:53.635Z,42.50
2019-05-16T09:30:27.268Z,42.80
2019-05-16T09:32:58.744Z,42.90
2019-05-16T09:35:30.169Z,43.30
2019-05-16T09:38:02.450Z,43.60
2019-05-16T09:40:33.362Z,43.70
2019-05-16T09:43:07.592Z,43.40
2019-05-16T09:45:38.527Z,43.50
2019-05-16T09:48:09.649Z,43.70
2019-05-16T09:50:41.134Z,43.60
2019-05-16T09:53:13.293Z,43.30
2019-05-16T09:55:46.776Z,43.00
2019-05-16T09:58:18.340Z,43.00
2019-05-16T10:00:49.883Z,43.30
2019-05-16T10:03:22.683Z,43.40
2019-05-16T10:05:56.938Z,43.50
2019-05-16T10:08:27.341Z,43.50
2019-05-16T10:10:58.587Z,43.30
2019-05-16T10:13:29.566Z,43.30
2019-05-16T10:16:00.591Z,43.40
2019-05-16T10:18:31.628Z,42.90
2019-05-16T10:21:03.235Z,42.80
2019-05-16T10:23:36.474Z,42.90
2019-05-16T10:26:07.334Z,43.20
2019-05-16T10:28:38.662Z,43.50
2019-05-16T10:31:10.870Z,43.70
2019-05-16T10:33:41.898Z,43.70
2019-05-16T10:36:12.973Z,44.10
2019-05-16T10:38:44.119Z,44.60
2019-05-16T10:41:14.982Z,44.70
2019-05-16T10:43:47.490Z,44.40
2019-05-16T10:46:18.638Z,44.10
2019-05-16T10:48:49.520Z,43.80
2019-05-16T10:51:23.464Z,44.10
2019-05-16T10:54:08.294Z,43.40
2019-05-16T10:56:25.561Z,43.50
2019-05-16T10:59:25.957Z,44.30
2019-05-16T11:01:31.316Z,43.70
2019-05-16T11:04:01.685Z,44.10
2019-05-16T11:06:32.554Z,44.90
2019-05-16T11:09:06.521Z,45.20
2019-05-16T11:11:37.840Z,46.20
2019-05-16T11:14:09.378Z,46.40
2019-05-16T11:16:40.497Z,46.80
2019-05-16T11:19:17.163Z,47.20
2019-05-16T11:21:43.902Z,47.50
2019-05-16T11:24:14.938Z,47.80
2019-05-16T11:26:47.366Z,47.80
2019-05-16T11:29:18.571Z,48.00
2019-05-16T11:31:49.469Z,48.00
2019-05-16T11:34:20.314Z,48.20
2019-05-16T11:36:51.267Z,49.10
2019-05-16T11:39:22.209Z,48.30
2019-05-16T11:41:53.147Z,48.30
2019-05-16T11:44:28.115Z,49.40
2019-05-16T11:46:57.591Z,48.90
2019-05-16T11:49:28.949Z,49.00
2019-05-16T11:52:11.434Z,49.40
2019-05-16T11:54:42.775Z,49.70
2019-05-16T11:57:13.634Z,49.80
2019-05-16T11:59:46.979Z,49.70
2019-05-16T12:02:17.520Z,50.50
2019-05-16T12:04:48.651Z,49.90
2019-05-16T12:07:22.605Z,50.10
2019-05-16T12:09:55.748Z,50.30
2019-05-16T12:12:27.146Z,50.30
2019-05-16T12:14:58.431Z,50.40
2019-05-16T12:17:29.294Z,50.70
2019-05-16T12:20:00.162Z,50.60
2019-05-16T12:22:31.055Z,51.20
2019-05-16T12:25:01.911Z,51.50
2019-05-16T12:27:33.876Z,51.90
2019-05-16T12:30:12.968Z,52.00
2019-05-16T12:32:39.005Z,52.00
2019-05-16T12:35:09.946Z,52.30
2019-05-16T12:37:40.820Z,52.50
2019-05-16T12:40:11.793Z,52.60
2019-05-16T12:42:42.756Z,52.70
2019-05-16T12:45:13.843Z,52.80
2019-05-16T12:47:47.256Z,52.40
2019-05-16T12:50:19.286Z,52.60
2019-05-16T12:52:51.197Z,52.80
2019-05-16T12:55:22.104Z,52.80
2019-05-16T12:57:58.733Z,52.90
2019-05-16T13:00:27.589Z,52.60
2019-05-16T13:02:58.067Z,52.50
2019-05-16T13:05:29.255Z,52.40
2019-05-16T13:08:00.247Z,52.30
2019-05-16T13:10:31.098Z,52.50
2019-05-16T13:13:02.049Z,52.80
2019-05-16T13:15:33.020Z,53.00
2019-05-16T13:18:04.101Z,53.20
2019-05-16T13:20:37.573Z,53.20
2019-05-16T13:23:14.566Z,53.60
2019-05-16T13:25:40.519Z,53.80
2019-05-16T13:28:11.488Z,54.20
2019-05-16T13:30:42.397Z,54.40
2019-05-16T13:33:13.407Z,54.70
2019-05-16T13:35:46.981Z,54.80
2019-05-16T13:38:17.604Z,54.90
2019-05-16T13:40:48.616Z,55.00
2019-05-16T13:43:19.494Z,55.20
2019-05-16T13:45:50.363Z,56.10
2019-05-16T13:48:21.329Z,55.70
2019-05-16T13:51:06.444Z,55.70
2019-05-16T13:53:26.945Z,55.80
2019-05-16T13:55:57.256Z,55.70
2019-05-16T13:58:28.398Z,56.20
2019-05-16T14:00:59.599Z,55.90
2019-05-16T14:03:30.921Z,55.90
2019-05-16T14:06:01.913Z,55.90
2019-05-16T14:08:33.311Z,56.10
2019-05-16T14:11:08.941Z,56.10
2019-05-16T14:13:37.659Z,55.90
2019-05-16T14:16:08.731Z,56.30
2019-05-16T14:18:39.671Z,56.60
2019-05-16T14:21:10.556Z,56.60
2019-05-16T14:23:41.436Z,56.70
2019-05-16T14:26:12.413Z,56.80
2019-05-16T14:28:44.641Z,56.90
2019-05-16T14:31:17.411Z,57.20
2019-05-16T14:33:49.340Z,57.60
2019-05-16T14:36:20.248Z,57.60
2019-05-16T14:38:51.347Z,57.80
2019-05-16T14:41:22.232Z,58.20
2019-05-16T14:43:53.221Z,58.10
2019-05-16T14:46:27.183Z,58.30
2019-05-16T14:48:56.618Z,58.20
2019-05-16T14:51:31.672Z,58.20
2019-05-16T14:54:00.468Z,58.00
2019-05-16T14:56:31.425Z,58.20
2019-05-16T14:59:02.839Z,57.70
2019-05-16T15:01:37.421Z,57.80
2019-05-16T15:04:18.981Z,58.30
2019-05-16T15:06:49.867Z,58.10
2019-05-16T15:09:20.780Z,58.50
2019-05-16T15:11:51.791Z,58.80
2019-05-16T15:14:23.008Z,58.80
2019-05-16T15:16:53.898Z,59.40
2019-05-16T15:19:25.072Z,58.90
2019-05-16T15:21:56.993Z,58.90
2019-05-16T15:24:28.101Z,59.00
2019-05-16T15:27:01.600Z,59.00
2019-05-16T15:29:31.575Z,58.90
2019-05-16T15:32:02.446Z,59.10
2019-05-16T15:34:34.663Z,59.10
2019-05-16T15:37:07.829Z,59.20
2019-05-16T15:39:38.432Z,59.50
2019-05-16T15:42:09.347Z,59.40
2019-05-16T15:44:40.771Z,59.40
2019-05-16T15:47:11.974Z,59.60
2019-05-16T15:49:43.956Z,59.80
2019-05-16T15:52:16.735Z,60.00
2019-05-16T15:54:49.928Z,60.20
2019-05-16T15:57:21.623Z,60.50
2019-05-16T15:59:52.595Z,60.90
2019-05-16T16:02:27.141Z,60.50
2019-05-16T16:04:57.689Z,60.60
2019-05-16T16:07:28.629Z,60.50
2019-05-16T16:09:59.471Z,60.40
2019-05-16T16:12:30.329Z,61.00
2019-05-16T16:15:01.178Z,61.20
2019-05-16T16:17:32.219Z,61.30
2019-05-16T16:20:03.187Z,61.30
2019-05-16T16:22:37.799Z,61.70
2019-05-16T16:25:08.724Z,61.80
2019-05-16T16:27:39.595Z,61.50
2019-05-16T16:30:10.787Z,61.60
2019-05-16T16:32:41.740Z,61.80
2019-05-16T16:35:14.109Z,61.80
2019-05-16T16:37:46.942Z,61.80
2019-05-16T16:40:18.558Z,61.40
2019-05-16T16:42:49.548Z,62.20
2019-05-16T16:45:20.828Z,62.10
2019-05-16T16:47:52.111Z,62.20
2019-05-16T16:50:23.075Z,62.60
2019-05-16T16:52:56.439Z,62.70
2019-05-16T16:55:27.565Z,63.70
2019-05-16T16:57:59.706Z,63.10
2019-05-16T17:00:30.834Z,63.70
2019-05-16T17:03:06.451Z,63.80
2019-05-16T17:05:34.351Z,64.00
2019-05-16T17:08:07.541Z,64.10
2019-05-16T17:10:38.794Z,64.00
2019-05-16T17:13:09.812Z,64.00
2019-05-16T17:15:42.327Z,64.40
2019-05-16T17:18:17.181Z,64.40
2019-05-16T17:20:48.779Z,64.60
2019-05-16T17:23:20.633Z,64.70
2019-05-16T17:25:51.467Z,64.80
2019-05-16T17:28:22.432Z,65.00
2019-05-16T17:30:53.431Z,65.10
2019-05-16T17:33:28.254Z,65.30
2019-05-16T17:35:57.646Z,65.50
2019-05-16T17:38:28.722Z,65.70
2019-05-16T17:40:59.702Z,65.70
2019-05-16T17:43:30.660Z,66.00
2019-05-16T17:46:01.729Z,66.20
2019-05-16T17:48:32.809Z,66.10
2019-05-16T17:51:03.582Z,66.30
2019-05-16T17:53:34.646Z,66.60
2019-05-16T17:56:06.855Z,66.60
2019-05-16T17:58:38.991Z,66.70
2019-05-16T18:01:09.948Z,66.90
2019-05-16T18:03:41.066Z,67.00
2019-05-16T18:06:11.959Z,67.00
2019-05-16T18:08:42.943Z,67.30
2019-05-16T18:11:14.201Z,67.50
2019-05-16T18:13:46.443Z,67.50
2019-05-16T18:16:17.297Z,67.70
2019-05-16T18:18:48.526Z,68.00
2019-05-16T18:21:19.449Z,67.50
2019-05-16T18:23:50.343Z,68.30
2019-05-16T18:26:21.521Z,68.30
2019-05-16T18:28:52.444Z,68.50
2019-05-16T18:31:23.310Z,68.50
2019-05-16T18:33:56.465Z,68.50
2019-05-16T18:36:26.997Z,68.90
2019-05-16T18:38:58.086Z,69.20
2019-05-16T18:41:29.043Z,69.60
2019-05-16T18:44:00.447Z,69.10
2019-05-16T18:46:31.393Z,69.20
2019-05-16T18:49:02.708Z,69.50
2019-05-16T18:51:33.823Z,69.30
2019-05-16T18:54:05.101Z,69.20
2019-05-16T18:56:36.519Z,69.50
2019-05-16T18:59:08.649Z,69.70
2019-05-16T19:01:39.571Z,69.80
2019-05-16T19:04:13.274Z,70.00
2019-05-16T19:06:43.055Z,70.00
2019-05-16T19:09:16.465Z,70.10
2019-05-16T19:11:46.433Z,70.30
2019-05-16T19:14:17.326Z,70.40
2019-05-16T19:16:49.223Z,70.40
2019-05-16T19:19:20.103Z,70.50
2019-05-16T19:21:51.001Z,70.70
2019-05-16T19:24:21.907Z,70.70
2019-05-16T19:26:53.130Z,70.80
2019-05-16T19:29:26.303Z,70.90
2019-05-16T19:31:57.101Z,71.20
2019-05-16T19:34:28.110Z,71.20
2019-05-16T19:36:59.029Z,71.20
2019-05-16T19:39:29.853Z,71.20
2019-05-16T19:42:01.049Z,71.30
2019-05-16T19:44:32.095Z,71.60
2019-05-16T19:47:02.981Z,71.70
2019-05-16T19:49:34.170Z,71.80
2019-05-16T19:52:07.252Z,71.90
2019-05-16T19:54:40.315Z,71.80
2019-05-16T19:57:11.517Z,72.00
2019-05-16T19:59:42.396Z,71.70
2019-05-16T20:02:13.383Z,71.70
2019-05-16T20:04:44.221Z,71.70
2019-05-16T20:07:16.788Z,72.00
2019-05-16T20:09:47.658Z,72.10
2019-05-16T20:12:18.570Z,72.10
2019-05-16T20:14:49.783Z,72.40
2019-05-16T20:17:23.746Z,72.50
2019-05-16T20:19:56.372Z,72.50
2019-05-16T20:22:27.387Z,72.70
2019-05-16T20:24:58.388Z,72.80
2019-05-16T20:27:29.277Z,72.90
2019-05-16T20:30:00.200Z,72.90
2019-05-16T20:32:31.089Z,73.00
2019-05-16T20:35:02.015Z,72.10
2019-05-16T20:37:32.998Z,73.10
2019-05-16T20:40:03.919Z,73.30
2019-05-16T20:42:36.727Z,73.20
2019-05-16T20:45:08.558Z,73.50
2019-05-16T20:47:39.518Z,73.50
2019-05-16T20:50:10.417Z,73.30
2019-05-16T20:52:41.346Z,73.50
2019-05-16T20:55:12.729Z,73.70
2019-05-16T20:57:46.386Z,73.70
2019-05-16T21:00:17.600Z,73.90
2019-05-16T21:02:49.490Z,74.10
2019-05-16T21:05:21.672Z,74.40
2019-05-16T21:07:52.825Z,74.30
2019-05-16T21:10:23.668Z,74.30
2019-05-16T21:12:57.269Z,74.50
2019-05-16T21:15:27.344Z,74.50
2019-05-16T21:17:58.482Z,74.60
2019-05-16T21:20:29.852Z,74.60
2019-05-16T21:23:00.950Z,74.80
2019-05-16T21:25:31.910Z,74.70
2019-05-16T21:28:02.828Z,74.80
2019-05-16T21:30:34.017Z,75.00
2019-05-16T21:33:04.864Z,75.00
2019-05-16T21:35:36.448Z,75.00
2019-05-16T21:38:08.945Z,75.10
2019-05-16T21:40:40.054Z,75.40
2019-05-16T21:43:10.970Z,75.40
2019-05-16T21:45:42.433Z,75.50
2019-05-16T21:48:13.585Z,75.60
2019-05-16T21:50:46.282Z,75.50
2019-05-16T21:53:17.821Z,75.70
2019-05-16T21:55:48.829Z,75.80
2019-05-16T21:58:19.745Z,76.00
2019-05-16T22:00:56.565Z,75.80
2019-05-16T22:03:27.317Z,76.00
2019-05-16T22:05:58.781Z,76.30
2019-05-16T22:08:30.170Z,76.20
2019-05-16T22:11:02.778Z,76.30
2019-05-16T22:13:37.093Z,76.50
2019-05-16T22:16:09.004Z,76.50
2019-05-16T22:18:39.936Z,76.50
2019-05-16T22:21:10.895Z,76.70
2019-05-16T22:23:42.064Z,76.70
2019-05-16T22:26:13.001Z,76.70
2019-05-16T22:28:49.126Z,76.60
2019-05-16T22:31:16.624Z,76.60
2019-05-16T22:33:47.526Z,76.80
2019-05-16T22:36:18.530Z,77.60
2019-05-16T22:38:49.398Z,77.10
2019-05-16T22:41:20.362Z,77.60
2019-05-16T22:43:51.282Z,77.20
2019-05-16T22:46:22.219Z,77.20
2019-05-16T22:48:53.223Z,77.10
2019-05-16T22:51:24.325Z,77.10
2019-05-16T22:53:58.545Z,78.00
2019-05-16T22:56:28.856Z,77.50
2019-05-16T22:59:00.303Z,77.30
2019-05-16T23:01:33.117Z,77.50
2019-05-16T23:04:04.104Z,77.40
2019-05-16T23:06:36.320Z,77.30
2019-05-16T23:09:09.560Z,77.40
2019-05-16T23:11:40.671Z,77.40
2019-05-16T23:14:11.529Z,77.60
2019-05-16T23:16:42.339Z,77.60
2019-05-16T23:19:13.517Z,77.90
2019-05-16T23:21:44.396Z,77.80
2019-05-16T23:24:17.272Z,78.10
2019-05-16T23:26:48.872Z,78.20
2019-05-16T23:29:19.960Z,78.50
2019-05-16T23:31:51.001Z,78.50
2019-05-16T23:34:21.904Z,78.70
2019-05-16T23:36:54.355Z,78.60
2019-05-16T23:39:26.268Z,78.80
2019-05-16T23:41:57.382Z,78.70
2019-05-16T23:44:28.274Z,78.90
2019-05-16T23:46:59.316Z,79.10
2019-05-16T23:49:30.279Z,79.00
2019-05-16T23:52:01.123Z,79.00
2019-05-16T23:54:32.036Z,79.10
2019-05-16T23:57:03.183Z,79.30
2019-05-16T23:59:34.032Z,79.20
